メインページ
METAR-TAF:

METAR-TAF

空港 :

ヌメア国際空港, ニューカレドニア

緯度: 22-01S, 経度: 166-13E, 海抜: 16m

現時点の気象観測

当レポートは22分前の06:30(UTC)に作成
南東の風 10kt
気温 20°C
湿度 64%
気圧 1017 hPa
視程10km以上
高度5000ftの千切れ雲あり

METAR: NWWW 150630Z AUTO 14010KT 9999 BKN050 20/13 Q1017 NOSIG

時間: 17:52 (06:52 UTC)

予報

当レポートは1時間52分前の05:00(UTC)に作成
予報は15日の 06時(UTC)から 16日の 06時(UTC)まで有効
南東の風 12kt
視程10km以上
高度4000ftの雲はほとんどない
15日の 06時(UTC)から 15日の 09時(UTC)まで徐々に
変向風 2kt
確率 40% :
15日の 14時(UTC)から 15日の 18時(UTC)まで一時的に
視程: 4500m
確率 30% :
15日の 16時(UTC)から 15日の 18時(UTC)まで一時的に
視程: 0900m
散在霧
16日の 00時(UTC)から 16日の 02時(UTC)まで徐々に
の風 12kt

TAF: NWWW 150500Z 1506/1606 14012KT 9999 FEW040 BECMG 1506/1509 VRB02KT PROB40 TEMPO 1514/1518 4500 BR PROB30 TEMPO 1516/1518 0900 BCFG BECMG 1600/1602 17012KT

4,000以上の空港の気象観測と天気予報(METAR報とTAF報)

利用可能な観測所は地図上に黄色い丸と赤い丸で示す。

丸の上にカーソルを重ねると観測所名を参照できる。

次にクリックすると気象観測と天気予報を参照できる。

マップの切り替え:黒色「×」印の緑ボタンをクリックして拡大、「-」印の緑ボタンをクリックして縮小、緑色の三角印をクリックして隣りの地図に切り替え


METAR-TAF: